Time;durP1;ratioP1;P1;durP2;ratioP2;P2;SDS_P1;SDS_P2;PMS_P1;PMS_P2;Temp;Humidity;BMP_temperature;BMP_pressure;BME280_temperature;BME280_humidity;BME280_pressure;Samples;Min_cycle;Max_cycle;Signal;HPM_P1;HPM_P2
2023/05/19 00:01:30;;;;;;;4.90;3.20;;;9.50;99.90;;;;;;5073288;28;20447;-69
2023/05/19 00:04:00;;;;;;;6.67;2.90;;;9.50;99.90;;;;;;5073346;28;20397;-69
2023/05/19 00:06:30;;;;;;;3.20;2.77;;;9.50;99.90;;;;;;5073046;28;20154;-69
2023/05/19 00:08:58;;;;;;;7.67;3.70;;;9.40;99.90;;;;;;5072454;28;20411;-69
2023/05/19 00:11:26;;;;;;;5.53;2.50;;;9.40;99.90;;;;;;5073043;28;20427;-69
2023/05/19 00:13:56;;;;;;;3.93;2.90;;;9.40;99.90;;;;;;5054852;28;20432;-69
2023/05/19 00:16:23;;;;;;;3.90;3.17;;;9.30;99.90;;;;;;5055092;28;20503;-69
2023/05/19 00:18:48;;;;;;;3.63;2.57;;;9.30;99.90;;;;;;5072910;28;20397;-69
2023/05/19 00:21:14;;;;;;;3.50;3.20;;;9.30;99.90;;;;;;5072868;28;20440;-71
2023/05/19 00:23:41;;;;;;;3.40;2.60;;;9.20;99.90;;;;;;5073134;28;20173;-69
2023/05/19 00:26:06;;;;;;;3.37;2.90;;;9.20;99.90;;;;;;5072963;28;20405;-69
2023/05/19 00:28:32;;;;;;;7.80;2.97;;;9.20;99.90;;;;;;5054630;28;20462;-69
2023/05/19 00:30:57;;;;;;;2.90;2.60;;;9.20;99.90;;;;;;5072825;28;20166;-69
2023/05/19 00:33:23;;;;;;;3.67;2.87;;;9.10;99.90;;;;;;5072903;28;20173;-69
2023/05/19 00:35:48;;;;;;;3.97;2.10;;;9.10;99.90;;;;;;5072677;28;20216;-71
2023/05/19 00:38:14;;;;;;;2.50;2.30;;;9.10;99.90;;;;;;5072383;28;20190;-69
2023/05/19 00:40:39;;;;;;;3.60;3.13;;;9.10;99.90;;;;;;5072413;28;20667;-69
2023/05/19 00:43:07;;;;;;;4.10;2.70;;;9.00;99.90;;;;;;5072068;28;20166;-69
2023/05/19 00:45:33;;;;;;;3.30;2.93;;;9.00;99.90;;;;;;5072591;28;20220;-69
2023/05/19 00:47:58;;;;;;;4.67;3.90;;;9.00;99.90;;;;;;5054231;28;20925;-69
2023/05/19 00:50:26;;;;;;;6.03;3.03;;;9.00;99.90;;;;;;5072596;28;20412;-69
2023/05/19 00:52:51;;;;;;;3.47;2.57;;;8.90;99.90;;;;;;5072524;28;20165;-71
2023/05/19 00:55:18;;;;;;;4.20;2.50;;;8.90;99.90;;;;;;5072500;28;20972;-69
2023/05/19 00:57:44;;;;;;;3.87;3.20;;;8.90;99.90;;;;;;5071969;28;20184;-69
2023/05/19 01:00:11;;;;;;;3.87;3.07;;;8.90;99.90;;;;;;5072397;28;20417;-69
2023/05/19 01:02:38;;;;;;;3.00;2.70;;;8.90;99.90;;;;;;5072246;28;20539;-71
2023/05/19 01:05:05;;;;;;;3.53;2.90;;;8.80;99.90;;;;;;5071484;28;20889;-69
2023/05/19 01:07:31;;;;;;;2.90;2.60;;;8.80;99.90;;;;;;5071965;28;20417;-69
2023/05/19 01:09:57;;;;;;;4.40;2.87;;;8.80;99.90;;;;;;5072211;28;20403;-69
2023/05/19 01:12:23;;;;;;;5.33;2.87;;;8.80;99.90;;;;;;5071906;28;20408;-69
2023/05/19 01:14:49;;;;;;;4.80;2.20;;;8.80;99.90;;;;;;5072021;28;20277;-71
2023/05/19 01:17:41;;;;;;;4.37;3.00;;;8.80;99.90;;;;;;5071763;28;20972;-69
2023/05/19 01:20:17;;;;;;;4.20;3.37;;;8.70;99.90;;;;;;5072172;28;20186;-69
2023/05/19 01:23:15;;;;;;;2.93;2.73;;;8.70;99.90;;;;;;5072020;28;20412;-69
2023/05/19 01:25:58;;;;;;;7.30;2.47;;;8.70;99.90;;;;;;5072210;28;20399;-69
2023/05/19 01:29:06;;;;;;;3.93;3.27;;;8.70;99.90;;;;;;5071598;28;20460;-69
2023/05/19 01:31:34;;;;;;;7.00;3.20;;;8.60;99.90;;;;;;5071836;28;20399;-69
2023/05/19 01:34:03;;;;;;;3.10;2.67;;;8.60;99.90;;;;;;5071787;28;20400;-69
2023/05/19 01:36:31;;;;;;;4.43;2.77;;;8.60;99.90;;;;;;5053831;28;20485;-69
2023/05/19 01:38:58;;;;;;;4.57;2.20;;;8.50;99.90;;;;;;5071608;28;20897;-69
2023/05/19 01:41:27;;;;;;;3.67;3.30;;;8.50;99.90;;;;;;5071887;28;20451;-69
2023/05/19 01:43:53;;;;;;;3.60;2.47;;;8.50;99.90;;;;;;5053828;28;20416;-70
2023/05/19 01:46:20;;;;;;;9.23;3.10;;;8.50;99.90;;;;;;5071430;28;20439;-69
2023/05/19 01:48:46;;;;;;;4.67;3.37;;;8.50;99.90;;;;;;5071093;28;20436;-69
2023/05/19 01:51:12;;;;;;;3.17;2.87;;;8.50;99.90;;;;;;5071811;28;20440;-69
2023/05/19 01:53:37;;;;;;;5.10;4.00;;;8.40;99.90;;;;;;5071844;28;20534;-71
2023/05/19 01:56:05;;;;;;;4.53;3.00;;;8.40;99.90;;;;;;5071751;28;20531;-71
2023/05/19 01:58:49;;;;;;;3.80;2.73;;;8.40;99.90;;;;;;5071360;28;20190;-70
2023/05/19 02:01:48;;;;;;;2.10;1.97;;;8.40;99.90;;;;;;5071689;28;20528;-68
2023/05/19 02:04:38;;;;;;;17.97;3.60;;;8.30;99.90;;;;;;5036125;28;20416;-71
2023/05/19 02:07:24;;;;;;;4.97;2.90;;;8.30;99.90;;;;;;5071321;28;20420;-71
2023/05/19 02:10:04;;;;;;;4.10;3.00;;;8.30;99.90;;;;;;5071618;28;20400;-70
2023/05/19 02:12:39;;;;;;;8.13;2.47;;;8.20;99.90;;;;;;5071689;28;20396;-70
2023/05/19 02:15:09;;;;;;;2.87;2.67;;;8.20;99.90;;;;;;5071541;28;20418;-70
2023/05/19 02:17:40;;;;;;;5.00;2.90;;;8.20;99.90;;;;;;5074400;28;20430;-70
2023/05/19 02:20:08;;;;;;;3.87;3.00;;;8.20;99.90;;;;;;5075376;28;20754;-70
2023/05/19 02:22:34;;;;;;;3.07;2.43;;;8.20;99.90;;;;;;5075283;28;20451;-70
2023/05/19 02:25:00;;;;;;;4.27;2.70;;;8.20;99.90;;;;;;5075294;28;20426;-70
2023/05/19 02:27:26;;;;;;;5.30;3.30;;;8.20;99.90;;;;;;5074896;28;20413;-70
2023/05/19 02:29:52;;;;;;;4.83;3.60;;;8.10;99.90;;;;;;5075175;28;20238;-70
2023/05/19 02:32:17;;;;;;;3.90;3.23;;;8.10;99.90;;;;;;5075386;28;20693;-70
2023/05/19 02:34:44;;;;;;;3.77;2.77;;;8.10;99.90;;;;;;5075424;28;20454;-70
2023/05/19 02:37:12;;;;;;;4.33;3.63;;;8.10;99.90;;;;;;5074865;28;20190;-70
2023/05/19 02:39:38;;;;;;;4.07;3.23;;;8.10;99.90;;;;;;5075150;28;20418;-70
2023/05/19 02:42:03;;;;;;;4.03;2.93;;;8.10;99.90;;;;;;5075011;28;20479;-70
2023/05/19 02:44:29;;;;;;;6.53;3.10;;;8.10;99.90;;;;;;5075011;28;20170;-70
2023/05/19 02:46:54;;;;;;;11.37;4.80;;;8.10;99.90;;;;;;5074526;28;20190;-70
2023/05/19 02:49:20;;;;;;;5.97;3.17;;;8.00;99.90;;;;;;5056861;28;20170;-70
2023/05/19 02:51:45;;;;;;;3.63;3.33;;;8.00;99.90;;;;;;5074832;28;20178;-70
2023/05/19 02:54:11;;;;;;;3.47;2.70;;;8.00;99.90;;;;;;5074536;28;20177;-70
2023/05/19 02:56:36;;;;;;;3.00;2.80;;;8.00;99.90;;;;;;5074439;28;20190;-70
2023/05/19 02:59:02;;;;;;;4.20;3.37;;;8.00;99.90;;;;;;5074342;28;20244;-70
2023/05/19 03:01:27;;;;;;;5.90;3.83;;;7.90;99.90;;;;;;5074493;28;20281;-70
2023/05/19 03:03:53;;;;;;;3.73;2.63;;;7.90;99.90;;;;;;5056800;28;20167;-70
2023/05/19 03:06:18;;;;;;;4.60;2.80;;;7.90;99.90;;;;;;5074275;28;20174;-70
2023/05/19 03:08:44;;;;;;;2.97;2.70;;;7.90;99.90;;;;;;5056348;28;20228;-70
2023/05/19 03:11:09;;;;;;;4.07;2.77;;;7.90;99.90;;;;;;5074134;28;20705;-70
2023/05/19 03:13:35;;;;;;;5.13;3.00;;;7.90;99.90;;;;;;5074362;28;20198;-70
2023/05/19 03:16:02;;;;;;;4.00;3.03;;;7.90;99.90;;;;;;5074370;28;20227;-70
2023/05/19 03:18:27;;;;;;;5.00;2.50;;;7.90;99.90;;;;;;5073925;28;20209;-70
2023/05/19 03:20:53;;;;;;;6.50;3.40;;;7.80;99.90;;;;;;5074108;28;20506;-70
2023/05/19 03:23:20;;;;;;;2.90;2.50;;;7.80;99.90;;;;;;5074272;28;20177;-70
2023/05/19 03:25:46;;;;;;;4.73;3.07;;;7.80;99.90;;;;;;5074252;28;20557;-70
2023/05/19 03:28:12;;;;;;;7.17;2.77;;;7.80;99.90;;;;;;5072962;28;20446;-70
2023/05/19 03:30:37;;;;;;;4.77;4.37;;;7.80;99.90;;;;;;5074189;28;20404;-70
2023/05/19 03:33:04;;;;;;;2.93;2.37;;;7.80;99.90;;;;;;5074029;28;20198;-70
2023/05/19 03:35:29;;;;;;;7.33;3.60;;;7.80;99.90;;;;;;5074081;28;20159;-70
2023/05/19 03:37:55;;;;;;;3.23;2.60;;;7.80;99.90;;;;;;5073624;28;20424;-70
2023/05/19 03:40:20;;;;;;;3.77;3.30;;;7.70;99.90;;;;;;5073912;28;20215;-70
2023/05/19 03:42:46;;;;;;;8.00;3.10;;;7.70;99.90;;;;;;5073867;28;20166;-70
2023/05/19 03:45:11;;;;;;;3.87;2.70;;;7.70;99.90;;;;;;5073896;28;20170;-70
2023/05/19 03:47:37;;;;;;;4.33;2.70;;;7.70;99.90;;;;;;5073356;28;20247;-70
2023/05/19 03:50:02;;;;;;;3.50;2.80;;;7.70;99.90;;;;;;5073834;28;20162;-70
2023/05/19 03:52:28;;;;;;;3.30;2.73;;;7.70;99.90;;;;;;5073593;28;20194;-70
2023/05/19 03:54:54;;;;;;;3.83;3.13;;;7.70;99.90;;;;;;5073411;28;20158;-70
2023/05/19 03:57:20;;;;;;;3.50;3.20;;;7.70;99.90;;;;;;5073188;28;20251;-70
2023/05/19 03:59:45;;;;;;;2.70;2.50;;;7.80;99.90;;;;;;5073662;28;20405;-70
2023/05/19 04:02:11;;;;;;;3.47;3.17;;;7.80;99.90;;;;;;5073404;28;20233;-70
2023/05/19 04:04:36;;;;;;;2.63;2.43;;;7.80;99.90;;;;;;5073274;28;20245;-70
2023/05/19 04:07:02;;;;;;;8.97;3.30;;;7.80;99.90;;;;;;5072798;28;20559;-70
2023/05/19 04:09:30;;;;;;;3.33;3.13;;;7.80;99.90;;;;;;5055332;28;20163;-70
2023/05/19 04:11:56;;;;;;;3.07;2.70;;;7.90;99.90;;;;;;5073319;28;20166;-70
2023/05/19 04:14:22;;;;;;;7.90;3.67;;;7.90;99.90;;;;;;5073022;28;20439;-70
2023/05/19 04:16:48;;;;;;;6.10;3.87;;;7.90;99.90;;;;;;5073068;28;20206;-70
2023/05/19 04:19:13;;;;;;;3.50;3.20;;;8.00;99.90;;;;;;5055027;28;20945;-70
2023/05/19 04:21:38;;;;;;;5.43;3.53;;;8.00;99.90;;;;;;5072768;28;20216;-70
2023/05/19 04:24:05;;;;;;;6.00;2.87;;;8.10;99.90;;;;;;5072953;28;20181;-70
2023/05/19 04:26:33;;;;;;;3.03;2.70;;;8.10;99.90;;;;;;5072936;28;20307;-70
2023/05/19 04:28:59;;;;;;;3.90;3.50;;;8.20;99.90;;;;;;5072808;28;20400;-70
2023/05/19 04:31:26;;;;;;;3.17;2.67;;;8.20;99.90;;;;;;5072808;28;20419;-70
2023/05/19 04:33:52;;;;;;;4.83;2.50;;;8.30;99.90;;;;;;5072863;28;20412;-70
2023/05/19 04:36:20;;;;;;;6.00;2.47;;;8.40;99.90;;;;;;5072628;28;20415;-70
2023/05/19 04:38:46;;;;;;;4.50;2.73;;;8.40;99.90;;;;;;5072458;28;20924;-70
2023/05/19 04:41:11;;;;;;;4.83;3.47;;;8.50;99.90;;;;;;5072715;28;20456;-70
2023/05/19 04:43:40;;;;;;;8.03;3.10;;;8.60;99.90;;;;;;5072801;28;20404;-70
2023/05/19 04:46:10;;;;;;;3.53;3.10;;;8.70;99.90;;;;;;5072571;28;20186;-70
2023/05/19 04:48:36;;;;;;;5.73;3.03;;;8.80;99.90;;;;;;5072186;28;20416;-70
2023/05/19 04:51:02;;;;;;;5.30;3.17;;;8.90;99.90;;;;;;5072721;28;20515;-70
2023/05/19 04:53:28;;;;;;;5.30;2.83;;;9.00;99.90;;;;;;5054586;28;20182;-70
2023/05/19 04:55:54;;;;;;;2.97;2.73;;;9.10;99.90;;;;;;5072463;28;20496;-70
2023/05/19 04:58:19;;;;;;;3.83;2.97;;;9.20;99.90;;;;;;5072079;28;20989;-70
2023/05/19 05:00:45;;;;;;;4.53;3.10;;;9.30;99.90;;;;;;5072217;28;20444;-70
2023/05/19 05:03:13;;;;;;;4.83;3.40;;;9.40;99.90;;;;;;5054422;28;20174;-70
2023/05/19 05:05:38;;;;;;;3.37;3.07;;;9.50;99.90;;;;;;5072277;28;20209;-71
2023/05/19 05:08:04;;;;;;;3.30;3.00;;;9.60;99.90;;;;;;5071974;28;20433;-70
2023/05/19 05:10:30;;;;;;;6.53;3.40;;;9.80;99.90;;;;;;5054668;28;20177;-70
2023/05/19 05:12:55;;;;;;;5.83;3.57;;;9.90;99.90;;;;;;5054616;28;20242;-70
2023/05/19 05:15:23;;;;;;;5.30;3.10;;;10.00;99.90;;;;;;5072160;28;20167;-70
2023/05/19 05:17:48;;;;;;;3.13;2.80;;;10.20;99.90;;;;;;5071876;28;20183;-70
2023/05/19 05:20:15;;;;;;;7.07;2.90;;;10.30;99.90;;;;;;5072158;28;20789;-70
2023/05/19 05:22:41;;;;;;;3.70;3.40;;;10.50;99.90;;;;;;5072016;28;20205;-70
2023/05/19 05:25:07;;;;;;;5.77;3.40;;;10.70;99.90;;;;;;5071976;28;20409;-69
2023/05/19 05:27:33;;;;;;;3.43;2.70;;;10.90;99.90;;;;;;5071576;28;20421;-68
2023/05/19 05:29:58;;;;;;;4.10;2.97;;;11.20;99.90;;;;;;5072015;28;20408;-69
2023/05/19 05:32:24;;;;;;;3.33;3.03;;;11.50;99.90;;;;;;5072033;28;20589;-69
2023/05/19 05:34:49;;;;;;;4.50;2.97;;;12.00;99.90;;;;;;5071976;28;20197;-69
2023/05/19 05:37:15;;;;;;;3.70;2.97;;;12.60;99.90;;;;;;5071518;28;20229;-69
2023/05/19 05:39:40;;;;;;;2.93;2.63;;;13.20;99.90;;;;;;5071952;28;20232;-69
2023/05/19 05:42:07;;;;;;;4.93;2.77;;;13.80;99.90;;;;;;5071796;28;20198;-69
2023/05/19 05:44:34;;;;;;;3.37;2.70;;;14.50;99.90;;;;;;5071820;28;20166;-69
2023/05/19 05:47:01;;;;;;;4.93;2.50;;;15.30;99.90;;;;;;5071474;28;20428;-69
2023/05/19 05:49:26;;;;;;;6.10;2.50;;;16.20;99.90;;;;;;5053575;28;20503;-69
2023/05/19 05:51:52;;;;;;;5.80;2.90;;;16.90;99.90;;;;;;5074348;28;20965;-69
2023/05/19 05:54:21;;;;;;;3.03;2.77;;;17.50;99.90;;;;;;5075935;28;20174;-69
2023/05/19 05:56:47;;;;;;;1.83;1.73;;;18.30;99.90;;;;;;5075667;28;20193;-69
2023/05/19 05:59:13;;;;;;;4.00;2.57;;;18.90;99.90;;;;;;5075516;28;20483;-69
2023/05/19 06:01:39;;;;;;;3.97;2.40;;;19.70;99.90;;;;;;5075730;28;20870;-69
2023/05/19 06:04:04;;;;;;;3.30;2.40;;;20.40;98.60;;;;;;5075625;28;20211;-70
2023/05/19 06:06:30;;;;;;;3.87;2.20;;;21.20;95.40;;;;;;5075451;28;20174;-70
2023/05/19 06:08:55;;;;;;;4.37;2.30;;;21.90;92.00;;;;;;5075206;28;20174;-70
2023/05/19 06:11:21;;;;;;;3.33;1.90;;;22.60;83.40;;;;;;5075546;28;20162;-70
2023/05/19 06:13:47;;;;;;;3.70;2.80;;;23.40;76.50;;;;;;5075463;28;20273;-71
2023/05/19 06:16:12;;;;;;;3.80;2.03;;;24.20;66.80;;;;;;5075674;28;20408;-71
2023/05/19 06:18:38;;;;;;;2.60;1.93;;;25.00;60.00;;;;;;5075170;28;20243;-69
2023/05/19 06:21:03;;;;;;;2.87;2.30;;;25.70;57.70;;;;;;5075377;28;20225;-69
2023/05/19 06:23:30;;;;;;;4.10;2.47;;;26.40;53.90;;;;;;5075370;28;20168;-67
2023/05/19 06:25:55;;;;;;;2.10;1.93;;;27.00;51.70;;;;;;5075228;28;20166;-67
2023/05/19 06:28:21;;;;;;;2.10;1.90;;;27.50;49.70;;;;;;5074939;28;20420;-68
2023/05/19 06:30:46;;;;;;;2.40;2.20;;;28.00;47.40;;;;;;5075224;28;20261;-68
2023/05/19 06:33:12;;;;;;;3.17;2.20;;;28.40;45.00;;;;;;5075196;28;20208;-68
2023/05/19 06:35:37;;;;;;;2.37;2.00;;;28.80;42.80;;;;;;5075054;28;20685;-68
2023/05/19 06:38:03;;;;;;;3.90;2.43;;;29.20;41.60;;;;;;5074713;28;20709;-69
2023/05/19 06:40:29;;;;;;;4.30;2.10;;;29.60;40.30;;;;;;5074964;28;20177;-68
2023/05/19 06:42:54;;;;;;;2.70;2.03;;;29.90;39.40;;;;;;5075033;28;20162;-68
2023/05/19 06:45:21;;;;;;;2.93;2.00;;;30.30;38.20;;;;;;5074784;28;20167;-68
2023/05/19 06:47:47;;;;;;;1.70;1.60;;;30.70;37.50;;;;;;5074563;28;20642;-68
2023/05/19 06:50:13;;;;;;;2.07;1.77;;;31.10;36.90;;;;;;5074844;28;20401;-68
2023/05/19 06:52:39;;;;;;;2.50;2.23;;;31.60;36.60;;;;;;5074809;28;20411;-68
2023/05/19 06:55:05;;;;;;;2.87;2.13;;;32.10;35.70;;;;;;5074774;28;20404;-68
2023/05/19 06:57:31;;;;;;;2.70;2.33;;;32.50;34.50;;;;;;5074388;28;20545;-68
2023/05/19 06:59:56;;;;;;;2.67;2.47;;;33.00;34.20;;;;;;5074623;28;20182;-68
2023/05/19 07:02:22;;;;;;;2.63;2.20;;;33.50;32.90;;;;;;5073326;28;20190;-68
2023/05/19 07:04:47;;;;;;;3.23;2.17;;;33.70;30.30;;;;;;5074539;28;20169;-69
2023/05/19 07:07:13;;;;;;;2.00;1.80;;;33.90;30.60;;;;;;5074182;28;20537;-68
2023/05/19 07:09:38;;;;;;;3.33;2.63;;;34.50;30.40;;;;;;5074292;28;20170;-68
2023/05/19 07:12:04;;;;;;;3.10;2.50;;;35.00;29.80;;;;;;5074469;28;20175;-69
2023/05/19 07:14:30;;;;;;;4.80;2.33;;;35.50;29.10;;;;;;5074333;28;20235;-69
2023/05/19 07:16:55;;;;;;;2.23;2.03;;;35.80;27.80;;;;;;5073841;28;20186;-68
2023/05/19 07:19:22;;;;;;;3.07;1.97;;;35.80;27.70;;;;;;5074385;28;20530;-69
2023/05/19 07:21:48;;;;;;;2.43;2.23;;;36.40;27.50;;;;;;5074219;28;20197;-68
2023/05/19 07:24:14;;;;;;;2.60;2.23;;;36.40;26.50;;;;;;5074209;28;20469;-68
2023/05/19 07:26:40;;;;;;;2.43;1.90;;;36.80;27.50;;;;;;5074040;28;20206;-69
2023/05/19 07:29:05;;;;;;;2.10;1.97;;;37.50;26.70;;;;;;5073962;28;20550;-69
2023/05/19 07:31:31;;;;;;;3.80;2.23;;;38.30;26.60;;;;;;5073980;28;20407;-69
2023/05/19 07:33:57;;;;;;;2.60;2.07;;;39.00;26.20;;;;;;5074111;28;20257;-69
2023/05/19 07:36:22;;;;;;;2.50;2.17;;;39.90;25.30;;;;;;5073878;28;20220;-69
2023/05/19 07:38:48;;;;;;;4.80;2.90;;;40.50;24.60;;;;;;5073636;28;20439;-70
2023/05/19 07:41:14;;;;;;;2.30;2.10;;;41.10;24.30;;;;;;5073866;28;20198;-69
2023/05/19 07:43:40;;;;;;;2.53;2.33;;;41.80;23.70;;;;;;5073965;28;20170;-70
2023/05/19 07:46:05;;;;;;;2.40;2.00;;;42.50;23.50;;;;;;5073827;28;20639;-69
2023/05/19 07:48:31;;;;;;;2.43;2.17;;;43.10;23.00;;;;;;5073378;28;20182;-70
2023/05/19 07:50:56;;;;;;;3.07;2.73;;;43.80;22.70;;;;;;5073729;28;20163;-69
2023/05/19 07:53:22;;;;;;;4.03;2.00;;;44.50;21.80;;;;;;5073662;28;20190;-69
2023/05/19 07:55:48;;;;;;;2.57;2.10;;;44.40;20.90;;;;;;5073513;28;20573;-69
2023/05/19 07:58:14;;;;;;;4.60;2.40;;;44.90;21.20;;;;;;5073193;28;20218;-70
2023/05/19 08:00:41;;;;;;;2.13;1.90;;;45.30;19.90;;;;;;5073412;28;20586;-71
2023/05/19 08:03:08;;;;;;;2.70;2.17;;;45.50;20.30;;;;;;5073516;28;20418;-70
2023/05/19 08:05:34;;;;;;;2.43;2.10;;;46.00;20.50;;;;;;5073430;28;20881;-70
2023/05/19 08:08:00;;;;;;;2.57;2.37;;;46.60;20.30;;;;;;5072993;28;20432;-68
2023/05/19 08:10:26;;;;;;;5.30;2.20;;;47.30;20.00;;;;;;5073382;28;20371;-68
2023/05/19 08:12:51;;;;;;;2.23;2.03;;;47.80;19.70;;;;;;5073252;28;20174;-68
2023/05/19 08:15:17;;;;;;;2.50;2.20;;;48.20;19.20;;;;;;5072533;28;20261;-68
2023/05/19 08:17:43;;;;;;;2.63;2.30;;;48.70;18.90;;;;;;5062063;28;20186;-67
2023/05/19 08:20:11;;;;;;;1.90;1.80;;;49.10;19.00;;;;;;5052725;28;20900;-68
2023/05/19 08:22:37;;;;;;;1.87;1.77;;;49.50;18.60;;;;;;5080617;28;20194;-68
2023/05/19 08:25:06;;;;;;;3.23;2.10;;;49.80;18.30;;;;;;5066214;28;20433;-68
2023/05/19 08:27:32;;;;;;;2.63;2.30;;;50.00;17.60;;;;;;5077672;28;20735;-67
2023/05/19 08:29:58;;;;;;;2.33;2.13;;;50.30;18.20;;;;;;5092749;28;20399;-68
2023/05/19 08:32:23;;;;;;;5.50;2.50;;;50.60;17.90;;;;;;5093201;28;20177;-68
2023/05/19 08:34:49;;;;;;;2.57;2.00;;;50.40;16.40;;;;;;5093101;28;20464;-69
2023/05/19 08:37:15;;;;;;;2.60;2.40;;;50.50;16.80;;;;;;5092694;28;20581;-69
2023/05/19 08:39:40;;;;;;;2.63;2.40;;;50.80;17.10;;;;;;5093041;28;20619;-69
2023/05/19 08:42:07;;;;;;;2.90;2.50;;;50.80;16.50;;;;;;5092922;28;20196;-68
2023/05/19 08:44:33;;;;;;;2.63;2.43;;;51.00;17.20;;;;;;5092836;28;20173;-69
2023/05/19 08:47:03;;;;;;;4.00;2.70;;;51.40;16.70;;;;;;5092453;28;20499;-68
2023/05/19 08:49:32;;;;;;;3.30;2.50;;;51.60;16.30;;;;;;5092803;28;20414;-68
2023/05/19 08:52:01;;;;;;;2.37;2.13;;;51.80;17.00;;;;;;5092813;28;20383;-68
2023/05/19 08:54:33;;;;;;;2.87;2.67;;;52.10;16.60;;;;;;5092730;28;20431;-69
2023/05/19 08:57:00;;;;;;;4.07;2.50;;;52.40;16.50;;;;;;5092373;28;20846;-69
2023/05/19 08:59:25;;;;;;;3.80;2.63;;;52.70;16.20;;;;;;5092787;28;20862;-69
2023/05/19 09:01:53;;;;;;;2.87;2.60;;;52.90;16.20;;;;;;5092493;28;20486;-69
2023/05/19 09:04:19;;;;;;;3.47;2.80;;;53.00;16.10;;;;;;5092654;28;20165;-69
2023/05/19 09:06:45;;;;;;;3.20;2.90;;;53.20;15.90;;;;;;5092350;28;20937;-68
2023/05/19 09:09:10;;;;;;;2.60;2.40;;;53.10;15.00;;;;;;5092268;28;20412;-68
2023/05/19 09:11:36;;;;;;;2.80;2.60;;;53.10;15.50;;;;;;5092366;28;20189;-68
2023/05/19 09:14:03;;;;;;;3.63;2.83;;;53.10;15.60;;;;;;5092416;28;20177;-68
2023/05/19 09:16:29;;;;;;;2.87;2.40;;;53.20;15.40;;;;;;5092336;28;20348;-69
2023/05/19 09:18:56;;;;;;;2.90;2.70;;;53.40;15.60;;;;;;5092125;28;21044;-69
2023/05/19 09:21:32;;;;;;;3.17;2.60;;;53.60;15.80;;;;;;5092332;28;20486;-69
2023/05/19 09:24:05;;;;;;;2.40;2.20;;;53.90;15.60;;;;;;5092269;28;20399;-68
2023/05/19 09:26:38;;;;;;;3.50;2.53;;;54.10;15.30;;;;;;5091428;28;20414;-68
2023/05/19 09:29:14;;;;;;;3.00;2.57;;;54.30;15.50;;;;;;5091960;28;20395;-68
2023/05/19 09:31:49;;;;;;;3.53;3.33;;;54.60;15.60;;;;;;5092165;28;20808;-68
2023/05/19 09:34:15;;;;;;;3.10;2.90;;;54.80;15.50;;;;;;5092177;28;20413;-68
2023/05/19 09:36:41;;;;;;;3.00;2.80;;;55.00;15.00;;;;;;5091929;28;20423;-68
2023/05/19 09:39:17;;;;;;;3.30;3.00;;;55.00;15.10;;;;;;5092038;28;20215;-68
2023/05/19 09:41:43;;;;;;;2.77;2.57;;;54.60;14.90;;;;;;5092284;28;20255;-69
2023/05/19 09:44:30;;;;;;;3.67;2.80;;;54.50;15.70;;;;;;5092013;28;20438;-69
2023/05/19 09:46:59;;;;;;;4.13;3.40;;;54.50;15.60;;;;;;5091701;28;20185;-69
2023/05/19 09:49:31;;;;;;;2.80;2.60;;;54.70;15.60;;;;;;5091975;28;20912;-68
2023/05/19 09:51:58;;;;;;;2.60;2.40;;;54.80;15.70;;;;;;5092100;28;20469;-68
2023/05/19 09:54:26;;;;;;;4.00;3.03;;;55.10;15.40;;;;;;5091964;28;20414;-68
2023/05/19 09:57:06;;;;;;;4.03;3.63;;;55.20;15.20;;;;;;5091477;28;20410;-69
2023/05/19 09:59:32;;;;;;;3.37;3.07;;;55.50;15.20;;;;;;5091888;28;20902;-69
2023/05/19 10:01:59;;;;;;;3.60;3.23;;;55.80;15.20;;;;;;5091915;28;20395;-68
2023/05/19 10:04:27;;;;;;;4.03;2.90;;;55.60;15.00;;;;;;5091847;28;20195;-69
2023/05/19 10:06:53;;;;;;;17.20;9.17;;;53.60;14.60;;;;;;5091567;28;20424;-69
2023/05/19 10:09:26;;;;;;;11.47;6.67;;;51.30;15.10;;;;;;5091720;28;20399;-69
2023/05/19 10:11:53;;;;;;;10.30;5.90;;;48.90;15.60;;;;;;5091645;28;20446;-68
2023/05/19 10:14:23;;;;;;;8.40;5.50;;;47.60;16.30;;;;;;5091659;28;20482;-69
2023/05/19 10:16:51;;;;;;;6.40;4.80;;;48.10;16.80;;;;;;5091696;28;20416;-69
2023/05/19 10:19:19;;;;;;;5.50;2.67;;;48.60;16.60;;;;;;5091794;28;20404;-69
2023/05/19 10:21:45;;;;;;;5.53;2.77;;;49.00;15.90;;;;;;5091681;28;20395;-68
2023/05/19 10:24:11;;;;;;;5.80;2.87;;;49.20;15.80;;;;;;5091639;28;20908;-69
2023/05/19 10:26:38;;;;;;;4.53;2.93;;;50.10;16.50;;;;;;5091486;28;20166;-69
2023/05/19 10:29:04;;;;;;;3.33;3.07;;;51.40;16.70;;;;;;5091388;28;20203;-68
2023/05/19 10:31:32;;;;;;;2.77;2.43;;;52.50;15.90;;;;;;5091478;28;20442;-68
2023/05/19 10:34:22;;;;;;;3.83;3.40;;;53.40;15.10;;;;;;5091522;28;20411;-69
2023/05/19 10:36:56;;;;;;;2.40;2.30;;;54.40;15.40;;;;;;5091966;28;20390;-68
2023/05/19 10:39:31;;;;;;;4.83;2.83;;;55.50;15.10;;;;;;5095451;28;20377;-69
2023/05/19 10:42:11;;;;;;;2.90;2.60;;;55.40;14.50;;;;;;5095302;28;20395;-69
2023/05/19 10:45:04;;;;;;;3.40;2.60;;;55.40;14.70;;;;;;5095328;28;20765;-69
2023/05/19 10:47:29;;;;;;;2.70;2.50;;;55.60;14.40;;;;;;5094768;28;20415;-69
2023/05/19 10:49:55;;;;;;;3.10;2.60;;;54.70;14.60;;;;;;5095317;28;20787;-69
2023/05/19 10:52:24;;;;;;;3.00;2.80;;;54.00;13.60;;;;;;5094984;28;20185;-70
2023/05/19 10:54:50;;;;;;;2.80;2.60;;;53.40;14.20;;;;;;5095049;28;20523;-69
2023/05/19 10:57:16;;;;;;;4.43;2.53;;;52.40;14.40;;;;;;5094660;28;20438;-68
2023/05/19 10:59:45;;;;;;;3.47;1.90;;;50.10;14.60;;;;;;5094943;28;20189;-69
2023/05/19 11:02:41;;;;;;;1.80;1.70;;;47.70;15.40;;;;;;5094852;28;20366;-69
2023/05/19 11:05:16;;;;;;;2.17;2.07;;;47.80;16.40;;;;;;5094723;28;20431;-69
2023/05/19 11:07:53;;;;;;;2.60;2.40;;;49.80;16.50;;;;;;5094317;28;20450;-69
2023/05/19 11:10:22;;;;;;;2.70;2.50;;;51.60;15.80;;;;;;5094514;28;20469;-69
2023/05/19 11:12:49;;;;;;;3.53;3.30;;;53.20;15.10;;;;;;5094335;28;20450;-70
2023/05/19 11:15:15;;;;;;;4.10;3.30;;;54.20;14.90;;;;;;5094547;28;20901;-69
2023/05/19 11:17:44;;;;;;;3.83;2.83;;;55.20;15.10;;;;;;5094146;28;20420;-69
2023/05/19 11:20:23;;;;;;;2.50;2.40;;;55.70;14.80;;;;;;5094450;28;20432;-69
2023/05/19 11:23:08;;;;;;;2.90;2.70;;;55.60;14.90;;;;;;5094322;28;20392;-69
2023/05/19 11:25:41;;;;;;;2.37;2.20;;;55.00;14.80;;;;;;5094374;28;20398;-70
2023/05/19 11:28:07;;;;;;;2.47;2.20;;;53.20;14.40;;;;;;5093980;28;20426;-70
2023/05/19 11:30:33;;;;;;;2.97;2.47;;;53.40;14.70;;;;;;5094312;28;20396;-70
2023/05/19 11:32:59;;;;;;;2.43;2.33;;;54.30;15.10;;;;;;5094160;28;20185;-69
2023/05/19 11:35:25;;;;;;;3.10;2.70;;;55.20;14.80;;;;;;5094014;28;20240;-68
2023/05/19 11:37:53;;;;;;;3.73;3.37;;;55.90;14.50;;;;;;5093795;28;20991;-69
2023/05/19 11:40:20;;;;;;;2.87;2.67;;;56.20;14.50;;;;;;5093989;28;20440;-69
2023/05/19 11:42:46;;;;;;;2.80;2.70;;;56.50;14.60;;;;;;5094047;28;20403;-69
2023/05/19 11:45:11;;;;;;;3.00;2.80;;;56.40;14.40;;;;;;5093912;28;20867;-68
2023/05/19 11:47:37;;;;;;;3.90;2.77;;;56.20;14.20;;;;;;5093613;28;20196;-70
2023/05/19 11:50:03;;;;;;;3.07;2.87;;;55.90;14.30;;;;;;5093115;28;20704;-69
2023/05/19 11:52:29;;;;;;;4.57;2.37;;;55.70;14.20;;;;;;5093948;28;20569;-70
2023/05/19 11:54:59;;;;;;;4.53;3.47;;;56.00;14.30;;;;;;5093807;28;20490;-70
2023/05/19 11:57:25;;;;;;;2.90;2.70;;;56.40;14.50;;;;;;5093403;28;20417;-70
2023/05/19 11:59:52;;;;;;;2.90;2.70;;;56.80;14.30;;;;;;5093688;28;20448;-69
2023/05/19 12:02:20;;;;;;;2.57;2.37;;;57.00;14.00;;;;;;5093632;28;20404;-69
2023/05/19 12:04:49;;;;;;;2.70;2.60;;;56.50;14.10;;;;;;5093564;28;20411;-69
2023/05/19 12:07:18;;;;;;;3.70;3.30;;;56.30;14.00;;;;;;5093185;28;20772;-69
2023/05/19 12:09:47;;;;;;;3.07;2.70;;;56.10;13.70;;;;;;5093568;28;20899;-70
2023/05/19 12:12:15;;;;;;;2.90;2.70;;;56.20;13.80;;;;;;5093362;28;20450;-70
2023/05/19 12:14:41;;;;;;;2.90;2.70;;;56.10;13.60;;;;;;5093322;28;20452;-70
2023/05/19 12:17:12;;;;;;;2.57;2.37;;;56.30;14.00;;;;;;5092931;28;20459;-70
2023/05/19 12:19:38;;;;;;;3.03;2.73;;;56.10;13.50;;;;;;5075203;28;20425;-69
2023/05/19 12:22:05;;;;;;;2.77;2.57;;;56.30;13.80;;;;;;5093314;28;20435;-70
2023/05/19 12:24:33;;;;;;;2.93;2.73;;;56.10;13.80;;;;;;5093320;28;20443;-70
2023/05/19 12:27:27;;;;;;;3.07;2.77;;;55.50;14.00;;;;;;5092930;28;20939;-69
2023/05/19 12:29:56;;;;;;;3.10;2.90;;;54.50;14.00;;;;;;5090409;28;20416;-68
2023/05/19 12:32:25;;;;;;;2.20;2.07;;;54.20;14.20;;;;;;5093018;28;20458;-69
2023/05/19 12:34:51;;;;;;;2.53;2.43;;;54.10;14.30;;;;;;5093067;28;20477;-69
2023/05/19 12:37:18;;;;;;;2.67;2.33;;;54.10;14.20;;;;;;5092536;28;20415;-69
2023/05/19 12:39:44;;;;;;;3.50;2.40;;;54.30;14.10;;;;;;5092848;28;20483;-69
2023/05/19 12:42:11;;;;;;;3.50;2.50;;;53.40;14.10;;;;;;5092738;28;20439;-70
2023/05/19 12:44:45;;;;;;;2.33;2.07;;;53.20;14.90;;;;;;5092748;28;20584;-68
2023/05/19 12:47:12;;;;;;;2.90;2.70;;;53.20;14.10;;;;;;5092400;28;20449;-70
2023/05/19 12:49:59;;;;;;;3.30;3.00;;;53.20;14.40;;;;;;5092690;28;20408;-70
2023/05/19 12:52:26;;;;;;;2.50;2.30;;;53.10;14.20;;;;;;5092579;28;20444;-70
2023/05/19 12:54:59;;;;;;;2.70;2.40;;;53.20;14.30;;;;;;5092665;28;20755;-70